Meteo – Situazione

Stazione Meteo G.A.P.
Ultimo aggiornamento 2021-11-27 14:15:30 Z

Vento da (gradi)
Velocità del vento (Km/h)
Temperatura (C°)
Pressione Barometrica (hPa)
Umidità (%)
Visibilità (mt)
Copertura Nuvolosa (%)
Pioggia nelle ultime 3 ore (mm)
Neve nelle ultime 3 ore (cm)

METAR Aeroporti Vicini

Pratica di Mare

LIRE 270755Z 22012KT 9999 SCT025 SCT070 14/10 Q0999 RMK BKN VIS MIN 9999 WIND THR13 23009KT WIND THR31 /////KT BLU

Roma Fiumicino

LIRF 270820Z 23014KT 9999 FEW040 15/08 Q0998 NOSIG

Roma Ciampino

LIRA 270820Z 19005KT 9999 FEW025 BKN035 13/09 Q0999

Latina

LIRL 261755Z /////KT 9999 -RA SCT020 SCT030 11/10 Q0998

Guidonia

LIRG 261755Z 10004KT 9999 SCT020 BKN030 10/08 Q0998 RERA

Roma Urbe

LIRU 270750Z 19003KT 9999 SCT020 BKN030 14/09 Q0999

Comments are closed.